Home > Products > Valid Products > TAF

000
FTUS44 KCRP 241700
TAFLRD
TAF
KLRD 241736Z 2418/2518 VRB06KT P6SM SCT070
     FM241900 12007KT P6SM VCTS SCT070CB SCT250
      TEMPO 2419/2423 3SM TSRA BR BKN040CB
     FM250200 18004KT P6SM FEW030 SCT250=



000
FTUS44 KCRP 241700
TAFALI
TAF
KALI 241736Z 2418/2518 09009KT P6SM FEW050
     FM241900 12008KT P6SM VCTS SCT050CB SCT250
      TEMPO 2419/2423 3SM TSRA BR BKN035CB
     FM250000 VRB03KT P6SM FEW012 SCT250
      TEMPO 2511/2514 6SM BR
     FM251500 VRB06KT P6SM SCT035=



000
FTUS44 KCRP 241700
TAFCRP
TAF
KCRP 241736Z 2418/2518 VRB07KT P6SM VCTS SCT040CB BKN250
     FM242100 12010KT P6SM SCT040 BKN250
     FM250200 VRB03KT P6SM FEW020 SCT250
     FM251500 19005KT P6SM SCT030=



000
FTUS44 KCRP 241700
TAFVCT
TAF
KVCT 241736Z 2418/2518 VRB06KT P6SM VCTS SCT035CB BKN150
      TEMPO 2418/2422 3SM TS BR BKN035CB
     FM242300 VRB06KT P6SM FEW040 SCT250
      TEMPO 2510/2512 5SM BR SCT015=



000
FTUS44 KCRP 241500 AAB
TAFVCT
TAF AMD
KVCT 241559Z 2416/2512 VRB04KT P6SM SCT020 SCT030
     FM241700 VRB05KT P6SM VCTS SCT035CB BKN150
     FM242200 10010KT P6SM SCT040
     FM250400 15006KT P6SM SKC=



000
FTUS44 KCRP 241300 AAA
TAFVCT
TAF AMD
KVCT 241304Z 2413/2512 VRB03KT 6SM BR VCSH SCT015 BKN110
      TEMPO 2413/2414 4SM -RA BR BKN015
     FM241500 28003KT P6SM SCT025
     FM242100 10010KT P6SM SCT040
     FM250400 15006KT P6SM SKC=



000
FTUS44 KCRP 241100
TAFCRP
TAF
KCRP 241120Z 2412/2512 VRB02KT 6SM BR FEW025 BKN250
     FM241500 10008KT P6SM SCT035
     FM250900 16005KT P6SM FEW020=



000
FTUS44 KCRP 241100
TAFALI
TAF
KALI 241120Z 2412/2512 VRB02KT P6SM FEW005 BKN250
      TEMPO 2412/2414 5SM BR BKN015
     FM241400 18006KT P6SM SKC
     FM241700 14010KT P6SM SCT035
     FM251000 15004KT P6SM SCT015=



000
FTUS44 KCRP 241100
TAFLRD
TAF
KLRD 241120Z 2412/2512 11006KT P6SM BKN250
     FM241800 11010KT P6SM BKN060
     FM250500 12006KT P6SM SKC=



000
FTUS44 KCRP 241100
TAFVCT
TAF
KVCT 241120Z 2412/2512 VRB03KT 6SM BR SCT015
      TEMPO 2412/2414 3SM BR BKN005 BKN015
     FM241500 28003KT P6SM SCT025
     FM242100 10010KT P6SM SCT040
     FM250400 15006KT P6SM SKC=



000
FTUS44 KCRP 240500
TAFCRP
TAF
KCRP 240528Z 2406/2506 16006KT P6SM FEW025 BKN250
     FM240900 VRB02KT 6SM BR FEW015
      TEMPO 2410/2414 4SM BR SCT015
     FM241400 19005KT P6SM SCT025
     FM241800 14012KT P6SM SCT035=



000
FTUS44 KCRP 240500
TAFALI
TAF
KALI 240528Z 2406/2506 14008KT P6SM FEW050 BKN250
     FM240900 VRB02KT 5SM BR FEW005
      TEMPO 2410/2414 1SM BR BKN005
     FM241400 18006KT P6SM SCT015
     FM241600 14010KT P6SM SCT035=



000
FTUS44 KCRP 240500
TAFLRD
TAF
KLRD 240528Z 2406/2506 14007KT P6SM FEW100
     FM240700 14008KT P6SM SKC
     FM241800 11010KT P6SM FEW060=



000
FTUS44 KCRP 240500
TAFVCT
TAF
KVCT 240528Z 2406/2506 13005KT P6SM FEW050 BKN250
     FM240900 VRB03KT 4SM BR SCT015
      TEMPO 2410/2414 1SM BR BKN005 BKN015
     FM241500 28003KT P6SM SCT025
     FM242100 14010KT P6SM SCT035=



000
FTUS44 KCRP 232300
TAFCRP
TAF
KCRP 232336Z 2400/2424 14015KT P6SM SCT050
     FM240100 16005KT P6SM FEW025
     FM240900 VRB02KT 6SM BR FEW015
      TEMPO 2410/2414 4SM BR SCT015
     FM241400 19005KT P6SM SCT025
     FM241800 14012KT P6SM SCT035=



000
FTUS44 KCRP 232300
TAFALI
TAF
KALI 232336Z 2400/2424 13012G18KT P6SM SCT050
     FM240100 14005KT P6SM FEW035
     FM240900 VRB02KT 5SM BR FEW001
      TEMPO 2410/2414 1SM BR BKN005
     FM241400 18006KT P6SM SCT015
     FM241800 14010KT P6SM SCT035=



000
FTUS44 KCRP 232300
TAFLRD
TAF
KLRD 232336Z 2400/2424 14007KT P6SM SCT050
     FM240700 14008KT P6SM SKC
     FM241800 11010KT P6SM FEW060=



000
FTUS44 KCRP 232300
TAFVCT
TAF
KVCT 232336Z 2400/2424 16010KT P6SM SCT035
     FM240200 16005KT P6SM SCT250
     FM240900 VRB03KT 4SM BR SCT015
      TEMPO 2410/2414 1SM BR SCT005 BKN015
     FM241500 28003KT P6SM SCT025
     FM242100 14010KT P6SM SCT035=



000
FTUS44 KCRP 231700
TAFLRD
TAF
KLRD 231728Z 2318/2418 14007KT P6SM SCT050
     FM240700 14007KT P6SM SKC=



000
FTUS44 KCRP 231700
TAFALI
TAF
KALI 231728Z 2318/2418 15011KT P6SM SCT050
     FM240200 VRB05KT P6SM FEW030
     FM240900 VRB02KT 5SM BR FEW001
      TEMPO 2410/2414 1SM BR BKN005
     FM241400 18006KT P6SM SCT015=



000
FTUS44 KCRP 231700
TAFVCT
TAF
KVCT 231728Z 2318/2418 VRB05KT P6SM SCT040 SCT250
     FM231900 VRB06KT P6SM VCTS SCT040CB BKN250
     FM240000 VRB05KT P6SM SCT250
     FM240900 VRB02KT 4SM BR SCT015
      TEMPO 2410/2414 1SM BR SCT005 BKN015
     FM241500 28003KT P6SM SCT025=



000
FTUS44 KCRP 231700
TAFCRP
TAF
KCRP 231728Z 2318/2418 VRB06KT P6SM SCT040 BKN250
     FM232000 14013KT P6SM SCT050 BKN200
     FM240200 16005KT P6SM FEW020 SCT250
     FM240900 VRB02KT 6SM BR FEW015
      TEMPO 2410/2414 4SM BR SCT015
     FM241400 VRB06KT P6SM SCT025=



000
FTUS44 KCRP 231300 AAB
TAFALI
TAF AMD
KALI 231326Z 2313/2412 17008KT 6SM BR SCT010
      TEMPO 2313/2314 4SM BR BKN004
     FM231400 16006KT P6SM SCT030
     FM232000 13012KT P6SM VCTS SCT040CB BKN100
     FM240200 12014G18KT P6SM SCT050 BKN100
     FM240300 14005KT P6SM BKN050
     FM240900 VRB03KT 5SM BR SCT001
      TEMPO 2410/2412 2SM BR=



000
FTUS44 KCRP 231100 AAA
TAFALI
TAF AMD
KALI 231142Z 2312/2412 VRB03KT 2SM BR VV008
      TEMPO 2312/2314 1/2SM FG
     FM231400 16006KT P6SM SCT030
     FM232000 13012KT P6SM VCTS SCT040CB BKN100
     FM240200 12014G18KT P6SM SCT050 BKN100
     FM240300 14005KT P6SM BKN050
     FM240900 VRB03KT 5SM BR SCT001
      TEMPO 2410/2412 2SM BR=



000
FTUS44 KCRP 231100 RRA
TAFLRD
TAF
KLRD 231141Z 2312/2412 14006KT P6SM SKC
     FM231800 14007KT P6SM SCT040 BKN250
     FM232300 12012G18KT P6SM BKN050
     FM240700 14007KT P6SM SKC=



000
FTUS44 KCRP 231100 RRA
TAFVCT
TAF
KVCT 231141Z 2312/2412 VRB03KT 1/2SM FG VV013
      TEMPO 2312/2313 1/4SM FG VV013
     FM231400 VRB04KT 5SM BR SCT025 BKN100
     FM231500 17008KT P6SM BKN030
     FM231800 16010KT P6SM VCTS BKN040CB OVC250
     FM240300 14005KT P6SM BKN050
     FM240900 VRB03KT 5SM BR SCT001 BKN050
      TEMPO 2410/2412 2SM BR=



000
FTUS44 KCRP 231100 RRA
TAFCRP
TAF
KCRP 231141Z 2312/2412 18004KT 6SM BR SCT015 BKN250
      TEMPO 2312/2313 5SM BR SCT001 BKN015
     FM231500 18006KT P6SM SCT030
     FM231800 13014KT P6SM VCTS SCT035CB BKN100
     FM232300 12015G20KT P6SM SCT050 BKN100
     FM240400 14005KT P6SM BKN050
      TEMPO 2410/2412 5SM BR=



000
FTUS44 KCRP 231100 RRA
TAFALI
TAF
KALI 231141Z 2312/2412 VRB03KT 1/2SM FG VV008
      TEMPO 2312/2314 1/4SM FG
     FM231400 16006KT P6SM SCT030
     FM232000 13012KT P6SM VCTS SCT040CB BKN100
     FM240200 12014G18KT P6SM SCT050 BKN100
     FM240300 14005KT P6SM BKN050
     FM240900 VRB03KT 5SM BR SCT001
      TEMPO 2410/2412 2SM BR=



000
FTUS44 KCRP 230500
TAFLRD
TAF
KLRD 230540Z 2306/2406 11010KT P6SM SCT100
     FM231800 14007KT P6SM SCT040 BKN250=



000
FTUS44 KCRP 230500
TAFALI
TAF
KALI 230540Z 2306/2406 15007KT P6SM SCT020
     FM230800 VRB03KT 5SM BR SCT010
      TEMPO 2310/2314 2SM BR BKN010
     FM231400 16006KT P6SM SCT030
     FM232000 13012KT P6SM VCTS SCT040CB BKN100
     FM240200 12014G18KT P6SM SCT050 BKN100
     FM240300 14005KT P6SM BKN050=



000
FTUS44 KCRP 230500
TAFCRP
TAF
KCRP 230540Z 2306/2406 15008KT P6SM SCT020 BKN250
      TEMPO 2311/2313 6SM BR SCT015
     FM231500 18006KT P6SM SCT030
     FM231800 13014KT P6SM VCTS SCT035CB BKN100
     FM232300 12015G20KT P6SM SCT050 BKN100
     FM240400 14005KT P6SM BKN050=



000
FTUS44 KCRP 230500
TAFVCT
TAF
KVCT 230540Z 2306/2406 17005KT P6SM FEW015
     FM230800 VRB03KT 4SM BR SCT012
      TEMPO 2310/2313 2SM BR BKN010
     FM231400 VRB04KT P6SM SCT025 BKN100
     FM231800 16010KT P6SM VCTS BKN040CB OVC250 PROB30 2320/2324 5SM
      TSRA OVC035CB=



000
FTUS44 KCRP 230200 AAA
TAFCRP
TAF AMD
KCRP 230257Z 2303/2324 16007KT P6SM FEW016
      TEMPO 2311/2314 6SM BR SCT015
     FM231400 18006KT P6SM SCT030
     FM231800 12012G17KT P6SM SCT040 BKN250=



000
FTUS44 KCRP 222300
TAFLRD
TAF
KLRD 222330Z 2300/2324 12011G16KT P6SM FEW060
     FM230700 14007KT P6SM SKC=



000
FTUS44 KCRP 222300
TAFVCT
TAF
KVCT 222330Z 2300/2324 15011KT P6SM FEW030 SCT250
     FM230400 16004KT P6SM FEW015
     FM230800 VRB03KT 4SM BR SCT040
      TEMPO 2310/2314 2SM BR FEW010
     FM231400 VRB04KT P6SM FEW025 SCT050
     FM232100 16010KT P6SM FEW050 SCT250=



000
FTUS44 KCRP 222300
TAFALI
TAF
KALI 222330Z 2300/2324 12011G16KT P6SM FEW040 SCT250
     FM230200 15008KT P6SM FEW015
     FM230800 VRB03KT 5SM BR FEW010
      TEMPO 2310/2314 2SM BR BKN010
     FM231400 16006KT P6SM SCT030
     FM232000 13011KT P6SM SCT045 BKN250=



000
FTUS44 KCRP 222300
TAFCRP
TAF
KCRP 222330Z 2300/2324 14014G20KT P6SM FEW035 SCT150
     FM230300 VRB05KT P6SM FEW016
      TEMPO 2311/2314 6SM BR SCT015
     FM231400 18006KT P6SM SCT030
     FM231800 12012G17KT P6SM SCT040 BKN250=



000
FTUS44 KCRP 222200 AAA
TAFALI
TAF AMD
KALI 222202Z 2222/2318 12011G16KT P6SM FEW040 SCT250
     FM230200 15008KT P6SM FEW015
      TEMPO 2310/2314 5SM BR
     FM231400 VRB06KT P6SM FEW030=



000
FTUS44 KCRP 222200 AAA
TAFCRP
TAF AMD
KCRP 222202Z 2222/2318 14014G20KT P6SM FEW035 SCT150
     FM230300 VRB05KT P6SM FEW016
      TEMPO 2311/2314 6SM BR SCT015
     FM231400 VRB06KT P6SM SCT030=



000
FTUS44 KCRP 221700
TAFVCT
TAF
KVCT 221735Z 2218/2318 17007KT P6SM SCT035 SCT250
     FM230400 VRB04KT P6SM FEW015
      TEMPO 2310/2314 4SM BR
     FM231400 VRB04KT P6SM SCT025 SCT060=



000
FTUS44 KCRP 221700
TAFCRP
TAF
KCRP 221735Z 2218/2318 15014G20KT P6SM SCT035 SCT250
     FM230300 VRB05KT P6SM FEW016
      TEMPO 2311/2314 6SM BR SCT015
     FM231400 VRB06KT P6SM SCT030=



000
FTUS44 KCRP 221700
TAFALI
TAF
KALI 221735Z 2218/2318 15014G18KT P6SM FEW040 FEW250
     FM230200 15008KT P6SM FEW015
      TEMPO 2310/2314 5SM BR
     FM231400 VRB06KT P6SM FEW030=



000
FTUS44 KCRP 221700
TAFLRD
TAF
KLRD 221735Z 2218/2318 14008KT P6SM FEW040
     FM222200 13012G18KT P6SM FEW060
     FM230800 VRB05KT P6SM SKC=



000
FTUS44 KCRP 221500 AAB
TAFLRD
TAF AMD
KLRD 221501Z 2215/2312 13008KT P6SM SCT040
      TEMPO 2215/2216 BKN029
     FM222200 13012G18KT P6SM FEW060
     FM230800 14007KT P6SM SKC=



000
FTUS44 KCRP 221400 AAA
TAFLRD
TAF AMD
KLRD 221404Z 2214/2312 13008KT P6SM SCT040
      TEMPO 2214/2215 BKN015
     FM222200 13012G18KT P6SM FEW060
     FM230800 14007KT P6SM SKC=



000
FTUS44 KCRP 221100
TAFALI
TAF
KALI 221137Z 2212/2312 12005KT 6SM BR BKN020
      TEMPO 2212/2214 5SM BR
     FM221400 16010KT P6SM SCT030 BKN200
     FM221900 14014G18KT P6SM FEW040 SCT250
     FM230200 16008KT P6SM SKC
     FM230600 17004KT 5SM BR SCT005
      TEMPO 2310/2312 2SM BR=



000
FTUS44 KCRP 221100
TAFVCT
TAF
KVCT 221137Z 2212/2312 07004KT 5SM BR SCT020
      TEMPO 2212/2213 3SM BR BKN020
     FM221400 19007KT P6SM SCT025 BKN200
     FM222100 16012G18KT P6SM SCT040
     FM230200 17008KT P6SM SKC
     FM230600 18005KT 5SM BR FEW015
      TEMPO 2308/2312 2SM BR=



000
FTUS44 KCRP 221100
TAFCRP
TAF
KCRP 221137Z 2212/2312 14006KT P6SM SCT015
      TEMPO 2212/2213 BKN015
     FM221400 15012KT P6SM SCT025 BKN200
     FM221700 12015G20KT P6SM FEW035 SCT250
     FM230300 15012KT P6SM SKC
     FM230900 17005KT 6SM BR FEW005=



000
FTUS44 KCRP 221100
TAFLRD
TAF
KLRD 221137Z 2212/2312 13008KT P6SM SKC
     FM222200 13012G18KT P6SM FEW060
     FM230800 14007KT P6SM SKC=



000
FTUS44 KCRP 220500
TAFLRD
TAF
KLRD 220529Z 2206/2306 12012G18KT P6SM SKC
     FM220700 14008KT P6SM SCT015
     FM222200 13012G18KT P6SM FEW060=



000
FTUS44 KCRP 220500
TAFALI
TAF
KALI 220529Z 2206/2306 15012KT P6SM FEW012
     FM220900 13004KT P6SM SCT012
      TEMPO 2210/2214 BKN012
     FM221400 16010KT P6SM SCT030 BKN200
     FM221900 14014G18KT P6SM FEW040 SCT250
     FM230200 16012KT P6SM SKC=



000
FTUS44 KCRP 220500
TAFCRP
TAF
KCRP 220529Z 2206/2306 15008KT P6SM SCT015
      TEMPO 2210/2213 BKN015
     FM221400 15012KT P6SM SCT025 BKN200
     FM221700 12015G20KT P6SM FEW035 SCT250
     FM230300 15010KT P6SM SKC=



000
FTUS44 KCRP 220500
TAFVCT
TAF
KVCT 220529Z 2206/2306 18005KT P6SM SCT012
      TEMPO 2210/2213 BKN012
     FM221400 19007KT P6SM SCT025 BKN200
     FM222100 16012G18KT P6SM SCT040
     FM230400 18006KT P6SM FEW015=



000
FTUS44 KCRP 212300
TAFVCT
TAF
KVCT 212326Z 2200/2224 16013KT P6SM SKC
     FM220300 17006KT P6SM FEW020 SCT150
      TEMPO 2211/2214 BKN020
     FM221400 19007KT P6SM SCT030
     FM222100 16013G17KT P6SM SCT040=



000
FTUS44 KCRP 212300
TAFLRD
TAF
KLRD 212326Z 2200/2224 13015G21KT P6SM FEW250
     FM220700 14011KT P6SM FEW015
     FM222000 13012G18KT P6SM FEW060=



000
FTUS44 KCRP 212300
TAFALI
TAF
KALI 212326Z 2200/2224 14014G20KT P6SM FEW040
     FM220300 16007KT P6SM SCT019
     FM220900 13004KT P6SM SCT011
      TEMPO 2210/2214 BKN011
     FM221400 16010KT P6SM SCT030
     FM221900 14014G19KT P6SM FEW040 SCT250=



000
FTUS44 KCRP 212300
TAFCRP
TAF
KCRP 212326Z 2200/2224 14014KT P6SM FEW030
     FM220300 16008KT P6SM SCT015
      TEMPO 2209/2213 BKN015
     FM221400 15013KT P6SM SCT030 BKN250
     FM221800 14015G21KT P6SM FEW035 SCT250=



    US Dept of Commerce
    National Oceanic and Atmospheric Administration
    National Weather Service
    1325 East West Highway
    Silver Spring, MD 20910
    Page Author: NWS Internet Services Team
Disclaimer
Information Quality
Credits
Glossary
Privacy Policy
Freedom of Information Act (FOIA)
About Us
Career Opportunities